sensor_id;sensor_type;location;lat;lon;timestamp;temperature;humidity
48604;DHT22;32708;51.212;6.788;2022-08-07T00:00:35;17.80;99.90
48604;DHT22;32708;51.212;6.788;2022-08-07T00:03:02;17.70;99.90
48604;DHT22;32708;51.212;6.788;2022-08-07T00:05:28;17.70;99.90
48604;DHT22;32708;51.212;6.788;2022-08-07T00:07:55;17.70;99.90
48604;DHT22;32708;51.212;6.788;2022-08-07T00:10:21;17.80;99.90
48604;DHT22;32708;51.212;6.788;2022-08-07T00:12:51;17.80;99.90
48604;DHT22;32708;51.212;6.788;2022-08-07T00:15:17;17.80;99.90
48604;DHT22;32708;51.212;6.788;2022-08-07T00:17:44;17.70;99.90
48604;DHT22;32708;51.212;6.788;2022-08-07T00:20:10;17.60;99.90
48604;DHT22;32708;51.212;6.788;2022-08-07T00:22:36;17.60;99.90
48604;DHT22;32708;51.212;6.788;2022-08-07T00:25:04;17.50;99.90
48604;DHT22;32708;51.212;6.788;2022-08-07T00:27:31;17.50;99.90
48604;DHT22;32708;51.212;6.788;2022-08-07T00:29:58;17.50;99.90
48604;DHT22;32708;51.212;6.788;2022-08-07T00:32:24;17.50;99.90
48604;DHT22;32708;51.212;6.788;2022-08-07T00:34:50;17.50;99.90
48604;DHT22;32708;51.212;6.788;2022-08-07T00:37:17;17.40;99.90
48604;DHT22;32708;51.212;6.788;2022-08-07T00:39:43;17.30;99.90
48604;DHT22;32708;51.212;6.788;2022-08-07T00:42:09;17.30;99.90
48604;DHT22;32708;51.212;6.788;2022-08-07T00:44:36;17.40;99.90
48604;DHT22;32708;51.212;6.788;2022-08-07T00:47:05;17.40;99.90
48604;DHT22;32708;51.212;6.788;2022-08-07T00:49:31;17.40;99.90
48604;DHT22;32708;51.212;6.788;2022-08-07T00:51:58;17.40;99.90
48604;DHT22;32708;51.212;6.788;2022-08-07T00:54:24;17.40;99.90
48604;DHT22;32708;51.212;6.788;2022-08-07T00:56:51;17.40;99.90
48604;DHT22;32708;51.212;6.788;2022-08-07T00:59:18;17.40;99.90
48604;DHT22;32708;51.212;6.788;2022-08-07T01:01:44;17.40;99.90
48604;DHT22;32708;51.212;6.788;2022-08-07T01:04:11;17.40;1.00
48604;DHT22;32708;51.212;6.788;2022-08-07T01:06:37;17.50;1.00
48604;DHT22;32708;51.212;6.788;2022-08-07T01:09:04;17.50;1.00
48604;DHT22;32708;51.212;6.788;2022-08-07T01:11:32;17.50;1.00
48604;DHT22;32708;51.212;6.788;2022-08-07T01:14:00;17.50;5.70
48604;DHT22;32708;51.212;6.788;2022-08-07T01:16:27;17.50;49.10
48604;DHT22;32708;51.212;6.788;2022-08-07T01:18:54;17.40;96.40
48604;DHT22;32708;51.212;6.788;2022-08-07T01:21:22;17.40;99.90
48604;DHT22;32708;51.212;6.788;2022-08-07T01:23:56;17.30;99.90
48604;DHT22;32708;51.212;6.788;2022-08-07T01:26:27;17.20;99.90
48604;DHT22;32708;51.212;6.788;2022-08-07T01:28:54;17.10;99.90
48604;DHT22;32708;51.212;6.788;2022-08-07T01:31:24;17.00;1.00
48604;DHT22;32708;51.212;6.788;2022-08-07T01:34:00;16.90;1.00
48604;DHT22;32708;51.212;6.788;2022-08-07T01:36:33;16.90;99.90
48604;DHT22;32708;51.212;6.788;2022-08-07T01:39:04;16.80;99.90
48604;DHT22;32708;51.212;6.788;2022-08-07T01:41:31;17.00;17.90
48604;DHT22;32708;51.212;6.788;2022-08-07T01:44:02;16.90;35.50
48604;DHT22;32708;51.212;6.788;2022-08-07T01:46:32;16.80;99.90
48604;DHT22;32708;51.212;6.788;2022-08-07T01:49:00;16.80;99.90
48604;DHT22;32708;51.212;6.788;2022-08-07T01:51:28;16.80;99.90
48604;DHT22;32708;51.212;6.788;2022-08-07T01:54:01;16.80;99.90
48604;DHT22;32708;51.212;6.788;2022-08-07T01:56:44;16.70;99.90
48604;DHT22;32708;51.212;6.788;2022-08-07T01:59:29;16.60;99.90
48604;DHT22;32708;51.212;6.788;2022-08-07T02:02:13;16.60;99.90
48604;DHT22;32708;51.212;6.788;2022-08-07T02:04:55;16.60;99.90
48604;DHT22;32708;51.212;6.788;2022-08-07T02:07:40;16.50;99.90
48604;DHT22;32708;51.212;6.788;2022-08-07T02:10:13;16.50;99.90
48604;DHT22;32708;51.212;6.788;2022-08-07T02:12:45;16.60;99.90
48604;DHT22;32708;51.212;6.788;2022-08-07T02:15:23;16.50;99.90
48604;DHT22;32708;51.212;6.788;2022-08-07T02:17:52;16.50;1.00
48604;DHT22;32708;51.212;6.788;2022-08-07T02:20:22;16.50;99.90
48604;DHT22;32708;51.212;6.788;2022-08-07T02:22:57;16.50;1.00
48604;DHT22;32708;51.212;6.788;2022-08-07T02:25:29;16.50;99.90
48604;DHT22;32708;51.212;6.788;2022-08-07T02:28:01;16.50;99.90
48604;DHT22;32708;51.212;6.788;2022-08-07T02:30:29;16.50;99.90
48604;DHT22;32708;51.212;6.788;2022-08-07T02:32:59;16.50;99.90
48604;DHT22;32708;51.212;6.788;2022-08-07T02:35:27;16.60;99.90
48604;DHT22;32708;51.212;6.788;2022-08-07T02:38:01;16.70;99.90
48604;DHT22;32708;51.212;6.788;2022-08-07T02:45:13;16.90;1.00
48604;DHT22;32708;51.212;6.788;2022-08-07T02:56:38;16.90;1.00
48604;DHT22;32708;51.212;6.788;2022-08-07T03:16:13;16.30;99.90
48604;DHT22;32708;51.212;6.788;2022-08-07T03:35:40;16.60;99.90
48604;DHT22;32708;51.212;6.788;2022-08-07T03:39:54;15.10;99.90
48604;DHT22;32708;51.212;6.788;2022-08-07T03:44:04;15.50;1.00
48604;DHT22;32708;51.212;6.788;2022-08-07T03:47:18;16.00;99.90
48604;DHT22;32708;51.212;6.788;2022-08-07T03:50:05;14.40;1.00
48604;DHT22;32708;51.212;6.788;2022-08-07T03:53:33;15.90;99.90
48604;DHT22;32708;51.212;6.788;2022-08-07T03:59:57;15.90;1.00
48604;DHT22;32708;51.212;6.788;2022-08-07T04:07:32;15.80;56.60
48604;DHT22;32708;51.212;6.788;2022-08-07T04:14:33;16.30;99.90
48604;DHT22;32708;51.212;6.788;2022-08-07T04:17:42;15.60;99.90
48604;DHT22;32708;51.212;6.788;2022-08-07T04:20:48;16.40;99.90
48604;DHT22;32708;51.212;6.788;2022-08-07T04:23:51;15.80;49.20
48604;DHT22;32708;51.212;6.788;2022-08-07T04:27:33;15.70;99.90
48604;DHT22;32708;51.212;6.788;2022-08-07T04:30:24;15.30;1.00
48604;DHT22;32708;51.212;6.788;2022-08-07T04:33:40;15.70;99.90
48604;DHT22;32708;51.212;6.788;2022-08-07T04:41:46;16.40;1.00
48604;DHT22;32708;51.212;6.788;2022-08-07T05:18:06;19.80;99.90
48604;DHT22;32708;51.212;6.788;2022-08-07T05:25:36;20.50;99.90
48604;DHT22;32708;51.212;6.788;2022-08-07T05:29:02;21.20;99.90
48604;DHT22;32708;51.212;6.788;2022-08-07T05:32:15;21.20;99.90
48604;DHT22;32708;51.212;6.788;2022-08-07T05:35:08;20.70;99.90
48604;DHT22;32708;51.212;6.788;2022-08-07T05:41:15;21.30;99.90
48604;DHT22;32708;51.212;6.788;2022-08-07T06:01:26;22.60;99.90
48604;DHT22;32708;51.212;6.788;2022-08-07T06:04:36;21.70;99.90
48604;DHT22;32708;51.212;6.788;2022-08-07T06:07:54;21.10;99.90
48604;DHT22;32708;51.212;6.788;2022-08-07T06:11:03;20.00;99.90
48604;DHT22;32708;51.212;6.788;2022-08-07T06:14:45;21.80;99.90
48604;DHT22;32708;51.212;6.788;2022-08-07T06:26:36;21.90;99.90
48604;DHT22;32708;51.212;6.788;2022-08-07T06:33:11;22.20;99.90
48604;DHT22;32708;51.212;6.788;2022-08-07T06:36:31;22.40;99.90
48604;DHT22;32708;51.212;6.788;2022-08-07T06:39:33;22.00;99.90
48604;DHT22;32708;51.212;6.788;2022-08-07T06:42:30;21.20;99.90
48604;DHT22;32708;51.212;6.788;2022-08-07T06:45:29;22.10;99.90
48604;DHT22;32708;51.212;6.788;2022-08-07T06:55:52;23.20;99.90
48604;DHT22;32708;51.212;6.788;2022-08-07T07:05:06;23.00;91.60
48604;DHT22;32708;51.212;6.788;2022-08-07T07:07:36;23.00;90.80
48604;DHT22;32708;51.212;6.788;2022-08-07T07:10:03;23.10;87.00
48604;DHT22;32708;51.212;6.788;2022-08-07T07:12:44;22.70;87.20
48604;DHT22;32708;51.212;6.788;2022-08-07T07:15:21;23.00;86.50
48604;DHT22;32708;51.212;6.788;2022-08-07T07:20:52;23.10;83.70
48604;DHT22;32708;51.212;6.788;2022-08-07T07:23:23;23.20;82.10
48604;DHT22;32708;51.212;6.788;2022-08-07T07:25:59;23.20;82.10
48604;DHT22;32708;51.212;6.788;2022-08-07T07:31:52;23.40;78.00
48604;DHT22;32708;51.212;6.788;2022-08-07T07:34:28;23.70;73.70
48604;DHT22;32708;51.212;6.788;2022-08-07T07:37:01;22.90;70.60
48604;DHT22;32708;51.212;6.788;2022-08-07T07:39:31;22.80;70.20
48604;DHT22;32708;51.212;6.788;2022-08-07T07:42:07;23.20;70.30
48604;DHT22;32708;51.212;6.788;2022-08-07T07:44:48;23.10;67.60
48604;DHT22;32708;51.212;6.788;2022-08-07T07:47:35;23.00;66.30
48604;DHT22;32708;51.212;6.788;2022-08-07T07:50:19;23.30;65.90
48604;DHT22;32708;51.212;6.788;2022-08-07T07:53:03;23.60;61.80
48604;DHT22;32708;51.212;6.788;2022-08-07T07:55:43;23.90;58.90
48604;DHT22;32708;51.212;6.788;2022-08-07T07:58:20;24.70;50.00
48604;DHT22;32708;51.212;6.788;2022-08-07T08:01:02;24.50;48.20
48604;DHT22;32708;51.212;6.788;2022-08-07T08:03:35;23.80;45.60
48604;DHT22;32708;51.212;6.788;2022-08-07T08:06:04;23.70;46.20
48604;DHT22;32708;51.212;6.788;2022-08-07T08:08:40;24.20;45.00
48604;DHT22;32708;51.212;6.788;2022-08-07T08:11:11;24.60;42.30
48604;DHT22;32708;51.212;6.788;2022-08-07T08:13:42;25.50;37.50
48604;DHT22;32708;51.212;6.788;2022-08-07T08:16:17;25.80;27.60
48604;DHT22;32708;51.212;6.788;2022-08-07T08:18:47;26.10;23.00
48604;DHT22;32708;51.212;6.788;2022-08-07T08:21:20;26.70;19.80
48604;DHT22;32708;51.212;6.788;2022-08-07T08:24:17;26.60;17.10
48604;DHT22;32708;51.212;6.788;2022-08-07T08:27:04;26.90;16.60
48604;DHT22;32708;51.212;6.788;2022-08-07T08:29:51;27.20;15.10
48604;DHT22;32708;51.212;6.788;2022-08-07T08:32:23;27.00;13.70
48604;DHT22;32708;51.212;6.788;2022-08-07T08:34:53;27.20;13.30
48604;DHT22;32708;51.212;6.788;2022-08-07T08:37:27;27.10;10.50
48604;DHT22;32708;51.212;6.788;2022-08-07T08:39:56;26.80;9.00
48604;DHT22;32708;51.212;6.788;2022-08-07T08:42:36;26.90;9.40
48604;DHT22;32708;51.212;6.788;2022-08-07T08:45:18;26.80;6.60
48604;DHT22;32708;51.212;6.788;2022-08-07T08:51:16;27.70;3.90
48604;DHT22;32708;51.212;6.788;2022-08-07T08:56:36;27.00;1.40
48604;DHT22;32708;51.212;6.788;2022-08-07T08:59:08;27.40;1.00
48604;DHT22;32708;51.212;6.788;2022-08-07T09:05:08;27.90;1.00
48604;DHT22;32708;51.212;6.788;2022-08-07T09:07:47;28.00;1.00
48604;DHT22;32708;51.212;6.788;2022-08-07T09:16:17;26.80;1.00
48604;DHT22;32708;51.212;6.788;2022-08-07T09:19:19;27.30;1.00
48604;DHT22;32708;51.212;6.788;2022-08-07T09:22:20;28.10;1.00
48604;DHT22;32708;51.212;6.788;2022-08-07T09:25:29;27.70;1.00
48604;DHT22;32708;51.212;6.788;2022-08-07T09:28:32;27.50;1.00
48604;DHT22;32708;51.212;6.788;2022-08-07T09:37:06;27.50;1.00
48604;DHT22;32708;51.212;6.788;2022-08-07T09:40:04;27.30;1.00
48604;DHT22;32708;51.212;6.788;2022-08-07T09:46:01;27.40;1.00
48604;DHT22;32708;51.212;6.788;2022-08-07T09:51:54;27.50;1.00
48604;DHT22;32708;51.212;6.788;2022-08-07T09:54:44;26.60;1.00
48604;DHT22;32708;51.212;6.788;2022-08-07T10:00:23;26.70;1.00
48604;DHT22;32708;51.212;6.788;2022-08-07T10:08:48;26.70;1.00
48604;DHT22;32708;51.212;6.788;2022-08-07T10:12:09;27.20;1.00
48604;DHT22;32708;51.212;6.788;2022-08-07T10:27:25;26.90;1.00
48604;DHT22;32708;51.212;6.788;2022-08-07T10:48:03;26.00;1.00
48604;DHT22;32708;51.212;6.788;2022-08-07T10:51:08;26.50;1.00
48604;DHT22;32708;51.212;6.788;2022-08-07T10:54:16;26.50;1.00
48604;DHT22;32708;51.212;6.788;2022-08-07T10:57:01;27.30;1.00
48604;DHT22;32708;51.212;6.788;2022-08-07T11:02:59;27.20;1.00
48604;DHT22;32708;51.212;6.788;2022-08-07T11:11:17;26.30;1.00
48604;DHT22;32708;51.212;6.788;2022-08-07T11:22:35;26.20;1.00
48604;DHT22;32708;51.212;6.788;2022-08-07T11:25:24;26.80;1.00
48604;DHT22;32708;51.212;6.788;2022-08-07T11:28:15;27.30;1.00
48604;DHT22;32708;51.212;6.788;2022-08-07T11:34:17;27.40;1.00
48604;DHT22;32708;51.212;6.788;2022-08-07T11:37:13;27.40;1.00
48604;DHT22;32708;51.212;6.788;2022-08-07T11:43:41;27.60;1.00
48604;DHT22;32708;51.212;6.788;2022-08-07T11:46:56;27.60;1.00
48604;DHT22;32708;51.212;6.788;2022-08-07T11:53:02;27.20;1.00
48604;DHT22;32708;51.212;6.788;2022-08-07T12:07:44;27.10;1.00
48604;DHT22;32708;51.212;6.788;2022-08-07T12:10:39;27.10;1.00
48604;DHT22;32708;51.212;6.788;2022-08-07T12:13:24;26.80;1.00
48604;DHT22;32708;51.212;6.788;2022-08-07T12:16:01;27.40;1.00
48604;DHT22;32708;51.212;6.788;2022-08-07T12:22:09;27.20;1.00
48604;DHT22;32708;51.212;6.788;2022-08-07T12:24:55;27.20;1.00
48604;DHT22;32708;51.212;6.788;2022-08-07T12:27:54;27.10;1.00
48604;DHT22;32708;51.212;6.788;2022-08-07T12:30:33;27.20;1.00
48604;DHT22;32708;51.212;6.788;2022-08-07T12:33:11;27.40;1.00
48604;DHT22;32708;51.212;6.788;2022-08-07T12:35:48;27.50;1.00
48604;DHT22;32708;51.212;6.788;2022-08-07T12:38:18;27.90;1.00
48604;DHT22;32708;51.212;6.788;2022-08-07T12:40:50;28.20;1.00
48604;DHT22;32708;51.212;6.788;2022-08-07T12:43:22;28.50;1.00
48604;DHT22;32708;51.212;6.788;2022-08-07T12:46:24;28.70;1.00
48604;DHT22;32708;51.212;6.788;2022-08-07T12:49:14;28.70;1.00
48604;DHT22;32708;51.212;6.788;2022-08-07T12:52:12;28.10;1.00
48604;DHT22;32708;51.212;6.788;2022-08-07T12:54:59;28.30;1.00
48604;DHT22;32708;51.212;6.788;2022-08-07T12:57:36;28.30;1.00
48604;DHT22;32708;51.212;6.788;2022-08-07T13:00:05;28.50;1.00
48604;DHT22;32708;51.212;6.788;2022-08-07T13:11:48;27.80;1.00
48604;DHT22;32708;51.212;6.788;2022-08-07T13:14:45;28.00;1.00
48604;DHT22;32708;51.212;6.788;2022-08-07T13:20:33;27.70;1.00
48604;DHT22;32708;51.212;6.788;2022-08-07T13:23:23;27.30;1.00
48604;DHT22;32708;51.212;6.788;2022-08-07T13:26:32;27.30;1.00
48604;DHT22;32708;51.212;6.788;2022-08-07T13:29:27;27.70;1.00
48604;DHT22;32708;51.212;6.788;2022-08-07T13:32:14;27.90;1.00
48604;DHT22;32708;51.212;6.788;2022-08-07T13:43:44;27.90;1.00
48604;DHT22;32708;51.212;6.788;2022-08-07T13:46:17;28.00;1.00
48604;DHT22;32708;51.212;6.788;2022-08-07T13:48:51;27.80;1.00
48604;DHT22;32708;51.212;6.788;2022-08-07T13:51:24;27.60;1.00
48604;DHT22;32708;51.212;6.788;2022-08-07T13:53:57;28.30;1.00
48604;DHT22;32708;51.212;6.788;2022-08-07T13:56:37;28.30;1.00
48604;DHT22;32708;51.212;6.788;2022-08-07T13:59:26;27.40;1.00
48604;DHT22;32708;51.212;6.788;2022-08-07T14:02:00;27.00;1.00
48604;DHT22;32708;51.212;6.788;2022-08-07T14:07:10;26.50;1.00
48604;DHT22;32708;51.212;6.788;2022-08-07T14:09:40;26.50;1.00
48604;DHT22;32708;51.212;6.788;2022-08-07T14:12:17;26.70;1.00
48604;DHT22;32708;51.212;6.788;2022-08-07T14:15:03;26.10;1.00
48604;DHT22;32708;51.212;6.788;2022-08-07T14:17:37;26.10;1.00
48604;DHT22;32708;51.212;6.788;2022-08-07T14:20:28;26.40;1.00
48604;DHT22;32708;51.212;6.788;2022-08-07T14:26:14;26.00;1.00
48604;DHT22;32708;51.212;6.788;2022-08-07T14:28:48;26.10;1.00
48604;DHT22;32708;51.212;6.788;2022-08-07T14:31:16;26.30;1.00
48604;DHT22;32708;51.212;6.788;2022-08-07T14:33:51;26.40;1.00
48604;DHT22;32708;51.212;6.788;2022-08-07T14:36:20;26.40;1.00
48604;DHT22;32708;51.212;6.788;2022-08-07T14:38:50;26.10;1.00
48604;DHT22;32708;51.212;6.788;2022-08-07T14:41:28;26.20;1.00
48604;DHT22;32708;51.212;6.788;2022-08-07T14:44:02;26.10;1.00
48604;DHT22;32708;51.212;6.788;2022-08-07T14:46:35;26.00;1.00
48604;DHT22;32708;51.212;6.788;2022-08-07T14:49:05;26.10;1.00
48604;DHT22;32708;51.212;6.788;2022-08-07T14:51:35;26.00;1.00
48604;DHT22;32708;51.212;6.788;2022-08-07T14:54:04;25.80;1.00
48604;DHT22;32708;51.212;6.788;2022-08-07T14:56:33;26.00;1.00
48604;DHT22;32708;51.212;6.788;2022-08-07T14:59:08;25.70;1.00
48604;DHT22;32708;51.212;6.788;2022-08-07T15:01:39;26.00;1.00
48604;DHT22;32708;51.212;6.788;2022-08-07T15:04:11;26.10;1.00
48604;DHT22;32708;51.212;6.788;2022-08-07T15:06:41;25.80;1.00
48604;DHT22;32708;51.212;6.788;2022-08-07T15:09:14;25.90;1.00
48604;DHT22;32708;51.212;6.788;2022-08-07T15:11:56;26.00;1.00
48604;DHT22;32708;51.212;6.788;2022-08-07T15:14:32;25.90;1.00
48604;DHT22;32708;51.212;6.788;2022-08-07T15:17:13;25.80;1.00
48604;DHT22;32708;51.212;6.788;2022-08-07T15:19:52;25.80;1.00
48604;DHT22;32708;51.212;6.788;2022-08-07T15:22:44;25.80;1.00
48604;DHT22;32708;51.212;6.788;2022-08-07T15:25:17;25.80;1.00
48604;DHT22;32708;51.212;6.788;2022-08-07T15:27:55;25.80;1.00
48604;DHT22;32708;51.212;6.788;2022-08-07T15:30:24;26.00;1.00
48604;DHT22;32708;51.212;6.788;2022-08-07T15:32:53;25.90;1.00
48604;DHT22;32708;51.212;6.788;2022-08-07T15:35:24;25.80;1.00
48604;DHT22;32708;51.212;6.788;2022-08-07T15:37:57;25.90;1.00
48604;DHT22;32708;51.212;6.788;2022-08-07T15:40:31;25.90;1.00
48604;DHT22;32708;51.212;6.788;2022-08-07T15:45:49;25.70;1.00
48604;DHT22;32708;51.212;6.788;2022-08-07T15:48:29;25.80;1.00
48604;DHT22;32708;51.212;6.788;2022-08-07T15:51:04;25.70;1.00
48604;DHT22;32708;51.212;6.788;2022-08-07T15:53:46;25.90;1.00
48604;DHT22;32708;51.212;6.788;2022-08-07T15:56:19;25.90;1.00
48604;DHT22;32708;51.212;6.788;2022-08-07T15:58:54;26.10;1.00
48604;DHT22;32708;51.212;6.788;2022-08-07T16:01:30;26.10;1.00
48604;DHT22;32708;51.212;6.788;2022-08-07T16:04:02;26.10;1.00
48604;DHT22;32708;51.212;6.788;2022-08-07T16:06:50;26.50;1.00
48604;DHT22;32708;51.212;6.788;2022-08-07T16:09:35;26.50;1.00
48604;DHT22;32708;51.212;6.788;2022-08-07T16:15:49;26.30;1.00
48604;DHT22;32708;51.212;6.788;2022-08-07T16:18:55;26.40;1.00
48604;DHT22;32708;51.212;6.788;2022-08-07T16:21:52;26.60;1.00
48604;DHT22;32708;51.212;6.788;2022-08-07T16:28:19;26.50;1.00
48604;DHT22;32708;51.212;6.788;2022-08-07T16:31:21;26.30;1.00
48604;DHT22;32708;51.212;6.788;2022-08-07T16:33:55;26.10;1.00
48604;DHT22;32708;51.212;6.788;2022-08-07T16:54:12;25.80;1.00
48604;DHT22;32708;51.212;6.788;2022-08-07T17:00:00;25.70;1.00
48604;DHT22;32708;51.212;6.788;2022-08-07T17:02:41;25.80;1.00
48604;DHT22;32708;51.212;6.788;2022-08-07T17:17:33;25.40;1.00
48604;DHT22;32708;51.212;6.788;2022-08-07T17:20:08;25.40;1.00
48604;DHT22;32708;51.212;6.788;2022-08-07T17:35:33;25.20;1.00
48604;DHT22;32708;51.212;6.788;2022-08-07T17:38:22;25.00;1.00
48604;DHT22;32708;51.212;6.788;2022-08-07T17:41:05;25.00;1.00
48604;DHT22;32708;51.212;6.788;2022-08-07T17:43:58;24.90;1.00
48604;DHT22;32708;51.212;6.788;2022-08-07T17:46:44;24.70;1.00
48604;DHT22;32708;51.212;6.788;2022-08-07T17:49:41;24.70;1.00
48604;DHT22;32708;51.212;6.788;2022-08-07T17:52:44;24.60;1.00
48604;DHT22;32708;51.212;6.788;2022-08-07T17:55:21;24.60;1.00
48604;DHT22;32708;51.212;6.788;2022-08-07T17:58:01;24.50;1.00
48604;DHT22;32708;51.212;6.788;2022-08-07T18:00:36;24.40;1.00
48604;DHT22;32708;51.212;6.788;2022-08-07T18:03:32;24.30;1.00
48604;DHT22;32708;51.212;6.788;2022-08-07T18:06:13;24.40;1.00
48604;DHT22;32708;51.212;6.788;2022-08-07T18:11:31;24.20;1.00
48604;DHT22;32708;51.212;6.788;2022-08-07T18:22:43;23.90;1.00
48604;DHT22;32708;51.212;6.788;2022-08-07T18:25:31;24.00;1.00
48604;DHT22;32708;51.212;6.788;2022-08-07T18:28:26;23.90;1.00
48604;DHT22;32708;51.212;6.788;2022-08-07T18:34:38;23.90;1.00
48604;DHT22;32708;51.212;6.788;2022-08-07T18:43:08;23.80;1.00
48604;DHT22;32708;51.212;6.788;2022-08-07T18:51:20;23.60;1.00
48604;DHT22;32708;51.212;6.788;2022-08-07T19:00:10;23.40;1.00
48604;DHT22;32708;51.212;6.788;2022-08-07T19:03:15;23.40;1.00
48604;DHT22;32708;51.212;6.788;2022-08-07T19:09:07;23.30;1.00
48604;DHT22;32708;51.212;6.788;2022-08-07T19:14:57;23.30;1.00
48604;DHT22;32708;51.212;6.788;2022-08-07T19:23:24;23.10;1.00
48604;DHT22;32708;51.212;6.788;2022-08-07T19:25:56;23.00;1.00
48604;DHT22;32708;51.212;6.788;2022-08-07T19:28:26;23.00;1.00
48604;DHT22;32708;51.212;6.788;2022-08-07T19:31:28;23.00;1.00
48604;DHT22;32708;51.212;6.788;2022-08-07T19:34:05;22.90;1.00
48604;DHT22;32708;51.212;6.788;2022-08-07T19:36:41;22.90;1.00
48604;DHT22;32708;51.212;6.788;2022-08-07T19:39:13;22.90;1.00
48604;DHT22;32708;51.212;6.788;2022-08-07T19:41:45;22.90;1.00
48604;DHT22;32708;51.212;6.788;2022-08-07T19:44:23;22.80;1.00
48604;DHT22;32708;51.212;6.788;2022-08-07T19:47:08;22.70;1.00
48604;DHT22;32708;51.212;6.788;2022-08-07T19:49:48;22.70;1.00
48604;DHT22;32708;51.212;6.788;2022-08-07T19:52:24;22.50;1.00
48604;DHT22;32708;51.212;6.788;2022-08-07T19:54:52;22.60;1.00
48604;DHT22;32708;51.212;6.788;2022-08-07T19:57:28;22.50;1.00
48604;DHT22;32708;51.212;6.788;2022-08-07T20:00:08;22.40;1.00
48604;DHT22;32708;51.212;6.788;2022-08-07T20:03:02;22.50;1.00
48604;DHT22;32708;51.212;6.788;2022-08-07T20:05:39;23.00;1.00
48604;DHT22;32708;51.212;6.788;2022-08-07T20:08:26;22.50;1.00
48604;DHT22;32708;51.212;6.788;2022-08-07T20:11:27;22.40;1.00
48604;DHT22;32708;51.212;6.788;2022-08-07T20:14:00;22.30;1.00
48604;DHT22;32708;51.212;6.788;2022-08-07T20:20:22;22.20;1.00
48604;DHT22;32708;51.212;6.788;2022-08-07T20:23:19;21.50;1.00
48604;DHT22;32708;51.212;6.788;2022-08-07T20:26:04;22.10;1.00
48604;DHT22;32708;51.212;6.788;2022-08-07T20:31:35;21.80;1.00
48604;DHT22;32708;51.212;6.788;2022-08-07T20:34:15;21.90;1.00
48604;DHT22;32708;51.212;6.788;2022-08-07T20:36:47;22.10;1.00
48604;DHT22;32708;51.212;6.788;2022-08-07T20:39:33;22.00;1.00
48604;DHT22;32708;51.212;6.788;2022-08-07T20:42:27;21.40;1.00
48604;DHT22;32708;51.212;6.788;2022-08-07T20:45:21;21.90;1.00
48604;DHT22;32708;51.212;6.788;2022-08-07T20:47:50;21.90;1.00
48604;DHT22;32708;51.212;6.788;2022-08-07T20:50:22;21.90;1.00
48604;DHT22;32708;51.212;6.788;2022-08-07T20:52:51;21.70;1.00
48604;DHT22;32708;51.212;6.788;2022-08-07T20:55:22;21.70;1.00
48604;DHT22;32708;51.212;6.788;2022-08-07T20:57:57;21.60;1.00
48604;DHT22;32708;51.212;6.788;2022-08-07T21:00:39;21.50;1.00
48604;DHT22;32708;51.212;6.788;2022-08-07T21:03:14;21.70;1.00
48604;DHT22;32708;51.212;6.788;2022-08-07T21:06:18;21.50;1.00
48604;DHT22;32708;51.212;6.788;2022-08-07T21:08:55;21.50;1.00
48604;DHT22;32708;51.212;6.788;2022-08-07T21:11:30;21.40;1.00
48604;DHT22;32708;51.212;6.788;2022-08-07T21:14:13;21.40;1.00
48604;DHT22;32708;51.212;6.788;2022-08-07T21:17:09;21.50;1.00
48604;DHT22;32708;51.212;6.788;2022-08-07T21:19:51;21.40;1.00
48604;DHT22;32708;51.212;6.788;2022-08-07T21:22:24;20.40;1.00
48604;DHT22;32708;51.212;6.788;2022-08-07T21:37:44;21.10;1.00
48604;DHT22;32708;51.212;6.788;2022-08-07T21:40:37;21.10;1.00
48604;DHT22;32708;51.212;6.788;2022-08-07T21:43:53;21.00;1.00
48604;DHT22;32708;51.212;6.788;2022-08-07T21:46:54;20.90;1.00
48604;DHT22;32708;51.212;6.788;2022-08-07T21:49:45;21.00;1.00
48604;DHT22;32708;51.212;6.788;2022-08-07T21:52:33;20.90;1.00
48604;DHT22;32708;51.212;6.788;2022-08-07T21:58:00;20.70;1.00
48604;DHT22;32708;51.212;6.788;2022-08-07T22:00:36;20.70;1.00
48604;DHT22;32708;51.212;6.788;2022-08-07T22:03:23;20.80;2.20
48604;DHT22;32708;51.212;6.788;2022-08-07T22:06:22;21.40;4.30
48604;DHT22;32708;51.212;6.788;2022-08-07T22:09:03;20.60;7.80
48604;DHT22;32708;51.212;6.788;2022-08-07T22:11:45;20.60;12.70
48604;DHT22;32708;51.212;6.788;2022-08-07T22:14:15;20.50;19.90
48604;DHT22;32708;51.212;6.788;2022-08-07T22:16:48;20.40;20.70
48604;DHT22;32708;51.212;6.788;2022-08-07T22:20:17;20.30;26.40
48604;DHT22;32708;51.212;6.788;2022-08-07T22:23:19;20.20;32.20
48604;DHT22;32708;51.212;6.788;2022-08-07T22:26:01;20.20;42.00
48604;DHT22;32708;51.212;6.788;2022-08-07T22:34:16;20.10;59.80
48604;DHT22;32708;51.212;6.788;2022-08-07T22:37:07;20.00;65.70
48604;DHT22;32708;51.212;6.788;2022-08-07T22:40:13;20.10;71.80
48604;DHT22;32708;51.212;6.788;2022-08-07T22:42:45;19.80;77.40
48604;DHT22;32708;51.212;6.788;2022-08-07T23:22:21;19.40;99.90
48604;DHT22;32708;51.212;6.788;2022-08-07T23:30:50;19.40;99.90
48604;DHT22;32708;51.212;6.788;2022-08-07T23:42:30;19.10;99.90
48604;DHT22;32708;51.212;6.788;2022-08-07T23:51:19;19.10;99.90
48604;DHT22;32708;51.212;6.788;2022-08-07T23:57:09;19.00;99.90
48604;DHT22;32708;51.212;6.788;2022-08-07T23:59:56;18.90;99.90
